Airfield :
LOGIN :

Register | Disclaimer

   EN    FR    IT 

 










Legend :    VFR   Marginal VFR   IFR   Intensive IFR   Very Intensive IFR
Visi :
Ceiling :
>= 8 km
>= 3000ft
5 to 8 km
1000 to 3000 ft
1500m to 5 km
500 to 1000 ft
800 to 1500m
200 to 500 ft
< 800m
< 200 ft
Symbols :   Thunderstorms  Fog  Heavy snow  Heavy precipitations  Wind > 20 kt
SIGMETs :     Misc.  Thunderstorms  Icing  Turbulence  Mountain Waves  Volcanic Ashes







- Airport Elevation : 238 ft
- IATA code : FAB
- Download approach charts


EGLF - Farnborough

CURRENT METAR :
  • 191920Z AUTO 11008KT 9999 NCD 16/09 Q1030

EXPIRED METARs :
  • 191850Z AUTO 11008KT 9999 NCD 17/09 Q1030
  • 191820Z AUTO 12005KT 9999 NCD 17/09 Q1029
  • 191750Z AUTO 09005KT 9999 NCD 18/09 Q1029
  • 191720Z AUTO 09006KT 9999 NCD 19/09 Q1029
  • 191650Z AUTO 10006KT 050V130 9999 NCD 20/09 Q1029
  • 191620Z AUTO 06007KT 030V090 9999 FEW038/// 20/09 Q1029

TAF TAF EGLF
Valid from the 19 at 18:00 until the 19 at 23:00 UTC


191701Z 1918/1923 06008KT 9999 FEW035
ATIS : +44 09063 800 400 (*282)
No reported NOTAMs for that airfield.



MET'MAP, your aeronautical weather chart ! - Copyright ORBIFLY December 2007 - Disclaimer

ORBIFLY MET'MAP TEAM :

Programming & Development : Alexandra Zaïnal
Concept & Development : Baudouin d'Aumeries
Co-Development & Prog : Marc-Olivier Méhu
Technical & hardware support : Manuel Goepfert

Contact : metmap@orbifly.com




SOURCES & CREDITS :

   NOAA